sensor_id;sensor_type;location;lat;lon;timestamp;pressure;altitude;pressure_sealevel;temperature;humidity
61761;BME280;47664;51.660;-0.100;2023-03-15T00:00:43;100714.11;;;2.52;61.10
61761;BME280;47664;51.660;-0.100;2023-03-15T00:03:16;100715.40;;;3.52;61.59
61761;BME280;47664;51.660;-0.100;2023-03-15T00:05:49;100718.53;;;3.18;62.02
61761;BME280;47664;51.660;-0.100;2023-03-15T00:08:21;100722.25;;;2.96;62.34
61761;BME280;47664;51.660;-0.100;2023-03-15T00:10:54;100726.89;;;3.49;62.03
61761;BME280;47664;51.660;-0.100;2023-03-15T00:13:26;100728.21;;;2.47;61.89
61761;BME280;47664;51.660;-0.100;2023-03-15T00:16:01;100731.77;;;2.88;62.19
61761;BME280;47664;51.660;-0.100;2023-03-15T00:18:34;100730.78;;;2.72;62.54
61761;BME280;47664;51.660;-0.100;2023-03-15T00:21:06;100733.16;;;2.80;62.93
61761;BME280;47664;51.660;-0.100;2023-03-15T00:23:38;100739.34;;;2.54;63.44
61761;BME280;47664;51.660;-0.100;2023-03-15T00:26:11;100740.92;;;2.47;64.28
61761;BME280;47664;51.660;-0.100;2023-03-15T00:28:43;100742.42;;;2.71;64.69
61761;BME280;47664;51.660;-0.100;2023-03-15T00:31:19;100745.84;;;2.20;64.87
61761;BME280;47664;51.660;-0.100;2023-03-15T00:33:51;100753.18;;;2.34;65.32
61761;BME280;47664;51.660;-0.100;2023-03-15T00:36:25;100752.24;;;2.23;66.16
61761;BME280;47664;51.660;-0.100;2023-03-15T00:38:58;100752.16;;;2.71;65.68
61761;BME280;47664;51.660;-0.100;2023-03-15T00:41:30;100755.57;;;1.90;65.17
61761;BME280;47664;51.660;-0.100;2023-03-15T00:44:02;100757.66;;;2.42;65.00
61761;BME280;47664;51.660;-0.100;2023-03-15T00:46:34;100762.87;;;2.41;65.20
61761;BME280;47664;51.660;-0.100;2023-03-15T00:49:07;100770.62;;;2.10;65.43
61761;BME280;47664;51.660;-0.100;2023-03-15T00:51:39;100768.30;;;2.48;65.60
61761;BME280;47664;51.660;-0.100;2023-03-15T00:54:11;100770.04;;;2.09;66.23
61761;BME280;47664;51.660;-0.100;2023-03-15T00:56:44;100770.01;;;2.09;67.12
61761;BME280;47664;51.660;-0.100;2023-03-15T00:59:16;100769.00;;;1.80;67.70
61761;BME280;47664;51.660;-0.100;2023-03-15T01:01:48;100767.79;;;1.91;68.17
61761;BME280;47664;51.660;-0.100;2023-03-15T01:04:20;100771.05;;;1.50;67.64
61761;BME280;47664;51.660;-0.100;2023-03-15T01:06:53;100770.28;;;1.70;67.41
61761;BME280;47664;51.660;-0.100;2023-03-15T01:09:25;100768.84;;;1.14;67.31
61761;BME280;47664;51.660;-0.100;2023-03-15T01:11:57;100768.82;;;1.95;67.24
61761;BME280;47664;51.660;-0.100;2023-03-15T01:14:30;100772.43;;;1.73;66.41
61761;BME280;47664;51.660;-0.100;2023-03-15T01:17:02;100778.16;;;2.53;65.92
61761;BME280;47664;51.660;-0.100;2023-03-15T01:19:34;100785.20;;;2.35;64.74
61761;BME280;47664;51.660;-0.100;2023-03-15T01:22:06;100786.19;;;2.96;63.34
61761;BME280;47664;51.660;-0.100;2023-03-15T01:24:38;100786.35;;;3.21;62.70
61761;BME280;47664;51.660;-0.100;2023-03-15T01:27:11;100787.99;;;3.32;61.36
61761;BME280;47664;51.660;-0.100;2023-03-15T01:29:43;100789.74;;;3.30;60.87
61761;BME280;47664;51.660;-0.100;2023-03-15T01:32:15;100795.07;;;3.17;60.76
61761;BME280;47664;51.660;-0.100;2023-03-15T01:34:47;100801.76;;;2.36;63.01
61761;BME280;47664;51.660;-0.100;2023-03-15T01:37:20;100803.98;;;2.32;63.43
61761;BME280;47664;51.660;-0.100;2023-03-15T01:39:53;100807.21;;;1.58;64.95
61761;BME280;47664;51.660;-0.100;2023-03-15T01:42:25;100812.90;;;1.69;65.91
61761;BME280;47664;51.660;-0.100;2023-03-15T01:44:59;100816.65;;;1.97;65.86
61761;BME280;47664;51.660;-0.100;2023-03-15T01:47:31;100817.42;;;2.07;65.53
61761;BME280;47664;51.660;-0.100;2023-03-15T01:50:07;100821.21;;;2.45;65.00
61761;BME280;47664;51.660;-0.100;2023-03-15T01:52:43;100821.49;;;2.04;64.52
61761;BME280;47664;51.660;-0.100;2023-03-15T01:55:18;100832.08;;;1.95;65.53
61761;BME280;47664;51.660;-0.100;2023-03-15T01:57:54;100835.73;;;1.75;66.16
61761;BME280;47664;51.660;-0.100;2023-03-15T02:00:27;100836.17;;;1.05;67.25
61761;BME280;47664;51.660;-0.100;2023-03-15T02:03:03;100844.53;;;1.82;66.14
61761;BME280;47664;51.660;-0.100;2023-03-15T02:05:40;100849.96;;;2.02;65.41
61761;BME280;47664;51.660;-0.100;2023-03-15T02:08:15;100853.44;;;2.24;65.39
61761;BME280;47664;51.660;-0.100;2023-03-15T02:10:49;100861.56;;;2.03;64.38
61761;BME280;47664;51.660;-0.100;2023-03-15T02:13:25;100861.57;;;1.84;64.32
61761;BME280;47664;51.660;-0.100;2023-03-15T02:15:57;100864.92;;;2.45;63.78
61761;BME280;47664;51.660;-0.100;2023-03-15T02:18:30;100864.06;;;1.74;62.55
61761;BME280;47664;51.660;-0.100;2023-03-15T02:21:03;100864.38;;;2.68;61.91
61761;BME280;47664;51.660;-0.100;2023-03-15T02:23:39;100861.67;;;2.38;61.89
61761;BME280;47664;51.660;-0.100;2023-03-15T02:26:15;100861.69;;;2.33;62.69
61761;BME280;47664;51.660;-0.100;2023-03-15T02:28:50;100860.72;;;2.27;63.07
61761;BME280;47664;51.660;-0.100;2023-03-15T02:31:24;100858.76;;;1.50;63.57
61761;BME280;47664;51.660;-0.100;2023-03-15T02:33:57;100853.45;;;2.41;62.89
61761;BME280;47664;51.660;-0.100;2023-03-15T02:36:30;100853.73;;;1.72;63.25
61761;BME280;47664;51.660;-0.100;2023-03-15T02:39:12;100857.86;;;2.12;63.31
61761;BME280;47664;51.660;-0.100;2023-03-15T02:41:47;100859.26;;;2.38;63.02
61761;BME280;47664;51.660;-0.100;2023-03-15T02:44:22;100860.58;;;2.13;62.25
61761;BME280;47664;51.660;-0.100;2023-03-15T02:46:54;100861.78;;;2.49;62.03
61761;BME280;47664;51.660;-0.100;2023-03-15T02:49:26;100860.74;;;1.77;62.15
61761;BME280;47664;51.660;-0.100;2023-03-15T02:52:02;100861.84;;;2.25;62.74
61761;BME280;47664;51.660;-0.100;2023-03-15T02:54:34;100858.20;;;2.14;61.97
61761;BME280;47664;51.660;-0.100;2023-03-15T02:57:07;100861.12;;;2.17;62.45
61761;BME280;47664;51.660;-0.100;2023-03-15T02:59:38;100869.10;;;1.82;63.53
61761;BME280;47664;51.660;-0.100;2023-03-15T03:02:11;100875.88;;;1.90;63.90
61761;BME280;47664;51.660;-0.100;2023-03-15T03:04:44;100872.74;;;1.84;64.08
61761;BME280;47664;51.660;-0.100;2023-03-15T03:07:16;100870.08;;;1.95;63.85
61761;BME280;47664;51.660;-0.100;2023-03-15T03:09:49;100868.21;;;1.49;64.62
61761;BME280;47664;51.660;-0.100;2023-03-15T03:12:22;100867.41;;;1.48;64.94
61761;BME280;47664;51.660;-0.100;2023-03-15T03:14:54;100870.89;;;1.50;65.41
61761;BME280;47664;51.660;-0.100;2023-03-15T03:17:26;100867.49;;;0.82;65.10
61761;BME280;47664;51.660;-0.100;2023-03-15T03:19:58;100861.50;;;1.36;65.12
61761;BME280;47664;51.660;-0.100;2023-03-15T03:22:30;100859.00;;;0.90;65.34
61761;BME280;47664;51.660;-0.100;2023-03-15T03:25:03;100858.89;;;1.31;64.82
61761;BME280;47664;51.660;-0.100;2023-03-15T03:27:35;100857.95;;;1.13;64.69
61761;BME280;47664;51.660;-0.100;2023-03-15T03:30:09;100860.91;;;1.70;64.51
61761;BME280;47664;51.660;-0.100;2023-03-15T03:32:43;100867.99;;;1.66;64.88
61761;BME280;47664;51.660;-0.100;2023-03-15T03:35:16;100873.24;;;1.28;64.83
61761;BME280;47664;51.660;-0.100;2023-03-15T03:37:48;100877.23;;;1.37;64.68
61761;BME280;47664;51.660;-0.100;2023-03-15T03:40:21;100886.08;;;1.24;64.79
61761;BME280;47664;51.660;-0.100;2023-03-15T03:42:53;100890.91;;;1.53;64.59
61761;BME280;47664;51.660;-0.100;2023-03-15T03:45:25;100900.22;;;0.74;65.69
61761;BME280;47664;51.660;-0.100;2023-03-15T03:47:57;100907.17;;;1.29;64.75
61761;BME280;47664;51.660;-0.100;2023-03-15T03:50:29;100914.84;;;0.76;65.43
61761;BME280;47664;51.660;-0.100;2023-03-15T03:53:02;100922.20;;;1.47;65.04
61761;BME280;47664;51.660;-0.100;2023-03-15T03:55:34;100924.36;;;1.76;64.39
61761;BME280;47664;51.660;-0.100;2023-03-15T03:58:06;100930.98;;;1.63;64.39
61761;BME280;47664;51.660;-0.100;2023-03-15T04:00:38;100931.24;;;1.43;63.36
61761;BME280;47664;51.660;-0.100;2023-03-15T04:03:11;100935.97;;;1.57;63.08
61761;BME280;47664;51.660;-0.100;2023-03-15T04:05:43;100934.62;;;1.34;63.97
61761;BME280;47664;51.660;-0.100;2023-03-15T04:08:15;100923.71;;;2.29;62.23
61761;BME280;47664;51.660;-0.100;2023-03-15T04:10:49;100922.28;;;2.09;61.91
61761;BME280;47664;51.660;-0.100;2023-03-15T04:13:21;100920.26;;;2.06;61.27
61761;BME280;47664;51.660;-0.100;2023-03-15T04:15:54;100926.57;;;2.67;60.29
61761;BME280;47664;51.660;-0.100;2023-03-15T04:18:26;100929.76;;;2.80;59.01
61761;BME280;47664;51.660;-0.100;2023-03-15T04:20:58;100935.04;;;2.96;58.48
61761;BME280;47664;51.660;-0.100;2023-03-15T04:23:30;100936.61;;;2.38;58.05
61761;BME280;47664;51.660;-0.100;2023-03-15T04:26:03;100931.12;;;3.23;57.72
61761;BME280;47664;51.660;-0.100;2023-03-15T04:28:36;100918.89;;;2.72;57.70
61761;BME280;47664;51.660;-0.100;2023-03-15T04:31:08;100917.14;;;3.54;57.55
61761;BME280;47664;51.660;-0.100;2023-03-15T04:33:41;100916.72;;;2.97;57.94
61761;BME280;47664;51.660;-0.100;2023-03-15T04:36:14;100918.91;;;2.31;58.92
61761;BME280;47664;51.660;-0.100;2023-03-15T04:38:46;100927.25;;;2.32;59.74
61761;BME280;47664;51.660;-0.100;2023-03-15T04:41:19;100933.78;;;2.33;60.92
61761;BME280;47664;51.660;-0.100;2023-03-15T04:43:51;100938.71;;;2.36;59.74
61761;BME280;47664;51.660;-0.100;2023-03-15T04:46:24;100941.57;;;2.10;58.76
61761;BME280;47664;51.660;-0.100;2023-03-15T04:48:55;100942.71;;;2.84;57.84
61761;BME280;47664;51.660;-0.100;2023-03-15T04:51:28;100941.41;;;2.41;57.60
61761;BME280;47664;51.660;-0.100;2023-03-15T04:54:00;100941.58;;;2.91;57.43
61761;BME280;47664;51.660;-0.100;2023-03-15T04:56:33;100946.41;;;2.47;57.15
61761;BME280;47664;51.660;-0.100;2023-03-15T04:59:05;100951.35;;;3.01;57.20
61761;BME280;47664;51.660;-0.100;2023-03-15T05:01:37;100952.84;;;3.10;57.06
61761;BME280;47664;51.660;-0.100;2023-03-15T05:04:09;100949.47;;;2.51;58.05
61761;BME280;47664;51.660;-0.100;2023-03-15T05:06:42;100948.86;;;2.90;57.35
61761;BME280;47664;51.660;-0.100;2023-03-15T05:09:14;100944.76;;;2.75;57.53
61761;BME280;47664;51.660;-0.100;2023-03-15T05:11:46;100938.29;;;2.63;57.56
61761;BME280;47664;51.660;-0.100;2023-03-15T05:14:19;100927.12;;;2.67;57.30
61761;BME280;47664;51.660;-0.100;2023-03-15T05:16:51;100932.23;;;2.63;57.10
61761;BME280;47664;51.660;-0.100;2023-03-15T05:19:23;100938.04;;;1.93;57.35
61761;BME280;47664;51.660;-0.100;2023-03-15T05:21:55;100939.92;;;2.10;58.32
61761;BME280;47664;51.660;-0.100;2023-03-15T05:24:28;100936.30;;;1.41;58.82
61761;BME280;47664;51.660;-0.100;2023-03-15T05:27:01;100934.99;;;2.71;58.18
61761;BME280;47664;51.660;-0.100;2023-03-15T05:29:33;100937.86;;;2.38;57.72
61761;BME280;47664;51.660;-0.100;2023-03-15T05:32:06;100943.12;;;2.51;57.61
61761;BME280;47664;51.660;-0.100;2023-03-15T05:34:37;100944.65;;;2.39;58.10
61761;BME280;47664;51.660;-0.100;2023-03-15T05:37:10;100943.08;;;2.57;57.62
61761;BME280;47664;51.660;-0.100;2023-03-15T05:39:42;100943.91;;;2.41;57.11
61761;BME280;47664;51.660;-0.100;2023-03-15T05:42:14;100952.89;;;2.32;58.00
61761;BME280;47664;51.660;-0.100;2023-03-15T05:44:46;100950.82;;;2.47;57.76
61761;BME280;47664;51.660;-0.100;2023-03-15T05:47:19;100948.96;;;2.79;57.52
61761;BME280;47664;51.660;-0.100;2023-03-15T05:49:51;100951.08;;;2.74;56.86
61761;BME280;47664;51.660;-0.100;2023-03-15T05:52:23;100953.40;;;2.70;56.62
61761;BME280;47664;51.660;-0.100;2023-03-15T05:54:55;100961.26;;;3.15;55.97
61761;BME280;47664;51.660;-0.100;2023-03-15T05:57:28;100961.65;;;2.52;55.66
61761;BME280;47664;51.660;-0.100;2023-03-15T06:00:00;100967.40;;;2.80;55.95
61761;BME280;47664;51.660;-0.100;2023-03-15T06:02:32;100972.06;;;2.71;56.06
61761;BME280;47664;51.660;-0.100;2023-03-15T06:05:04;100978.20;;;2.55;56.64
61761;BME280;47664;51.660;-0.100;2023-03-15T06:07:37;100983.71;;;1.68;57.59
61761;BME280;47664;51.660;-0.100;2023-03-15T06:10:10;100987.41;;;2.21;57.70
61761;BME280;47664;51.660;-0.100;2023-03-15T06:12:42;100991.72;;;2.44;57.76
61761;BME280;47664;51.660;-0.100;2023-03-15T06:15:15;101001.02;;;1.49;58.99
61761;BME280;47664;51.660;-0.100;2023-03-15T06:17:47;101002.15;;;1.97;58.33
61761;BME280;47664;51.660;-0.100;2023-03-15T06:20:19;101006.55;;;1.97;58.38
61761;BME280;47664;51.660;-0.100;2023-03-15T06:22:51;101009.35;;;1.89;59.47
61761;BME280;47664;51.660;-0.100;2023-03-15T06:25:24;101009.15;;;1.17;59.34
61761;BME280;47664;51.660;-0.100;2023-03-15T06:27:57;101017.41;;;1.95;58.84
61761;BME280;47664;51.660;-0.100;2023-03-15T06:30:29;101014.75;;;1.73;58.56
61761;BME280;47664;51.660;-0.100;2023-03-15T06:33:01;101012.50;;;2.24;57.89
61761;BME280;47664;51.660;-0.100;2023-03-15T06:35:33;101020.46;;;1.86;58.28
61761;BME280;47664;51.660;-0.100;2023-03-15T06:38:05;101023.25;;;2.32;57.52
61761;BME280;47664;51.660;-0.100;2023-03-15T06:40:38;101029.99;;;2.50;56.69
61761;BME280;47664;51.660;-0.100;2023-03-15T06:43:10;101034.48;;;2.92;56.70
61761;BME280;47664;51.660;-0.100;2023-03-15T06:45:43;101033.28;;;2.63;57.52
61761;BME280;47664;51.660;-0.100;2023-03-15T06:48:15;101029.19;;;2.47;58.09
61761;BME280;47664;51.660;-0.100;2023-03-15T06:50:47;101029.27;;;2.35;58.52
61761;BME280;47664;51.660;-0.100;2023-03-15T06:53:20;101033.94;;;2.85;58.39
61761;BME280;47664;51.660;-0.100;2023-03-15T06:55:52;101032.09;;;2.61;58.46
61761;BME280;47664;51.660;-0.100;2023-03-15T06:58:24;101028.84;;;2.12;58.38
61761;BME280;47664;51.660;-0.100;2023-03-15T07:00:56;101033.45;;;2.56;58.63
61761;BME280;47664;51.660;-0.100;2023-03-15T07:03:29;101038.68;;;1.88;58.91
61761;BME280;47664;51.660;-0.100;2023-03-15T07:06:01;101040.36;;;2.64;58.94
61761;BME280;47664;51.660;-0.100;2023-03-15T07:08:33;101040.76;;;2.48;58.35
61761;BME280;47664;51.660;-0.100;2023-03-15T07:11:06;101047.40;;;2.99;58.94
61761;BME280;47664;51.660;-0.100;2023-03-15T07:13:38;101051.27;;;2.87;59.09
61761;BME280;47664;51.660;-0.100;2023-03-15T07:16:11;101054.11;;;3.09;58.71
61761;BME280;47664;51.660;-0.100;2023-03-15T07:18:43;101056.26;;;2.28;59.32
61761;BME280;47664;51.660;-0.100;2023-03-15T07:21:15;101059.82;;;3.19;58.94
61761;BME280;47664;51.660;-0.100;2023-03-15T07:23:48;101065.02;;;3.10;58.94
61761;BME280;47664;51.660;-0.100;2023-03-15T07:26:20;101065.39;;;2.63;59.06
61761;BME280;47664;51.660;-0.100;2023-03-15T07:28:53;101068.89;;;3.34;58.82
61761;BME280;47664;51.660;-0.100;2023-03-15T07:31:25;101070.72;;;2.96;58.20
61761;BME280;47664;51.660;-0.100;2023-03-15T07:33:58;101071.01;;;3.87;57.78
61761;BME280;47664;51.660;-0.100;2023-03-15T07:36:30;101074.84;;;3.10;58.33
61761;BME280;47664;51.660;-0.100;2023-03-15T07:39:02;101076.97;;;3.64;58.82
61761;BME280;47664;51.660;-0.100;2023-03-15T07:41:35;101077.40;;;2.96;58.53
61761;BME280;47664;51.660;-0.100;2023-03-15T07:44:07;101080.44;;;3.61;58.96
61761;BME280;47664;51.660;-0.100;2023-03-15T07:46:40;101085.19;;;2.88;59.27
61761;BME280;47664;51.660;-0.100;2023-03-15T07:49:12;101077.16;;;3.60;58.83
61761;BME280;47664;51.660;-0.100;2023-03-15T07:51:44;101071.16;;;3.56;58.52
61761;BME280;47664;51.660;-0.100;2023-03-15T07:54:17;101076.64;;;3.98;57.99
61761;BME280;47664;51.660;-0.100;2023-03-15T07:56:49;101078.83;;;3.99;57.92
61761;BME280;47664;51.660;-0.100;2023-03-15T07:59:21;101071.33;;;4.09;57.49
61761;BME280;47664;51.660;-0.100;2023-03-15T08:01:53;101072.37;;;4.29;57.22
61761;BME280;47664;51.660;-0.100;2023-03-15T08:04:26;101066.12;;;3.65;57.65
61761;BME280;47664;51.660;-0.100;2023-03-15T08:06:58;101067.08;;;3.69;57.66
61761;BME280;47664;51.660;-0.100;2023-03-15T08:09:30;101059.69;;;3.21;57.51
61761;BME280;47664;51.660;-0.100;2023-03-15T08:12:02;101058.19;;;3.89;57.47
61761;BME280;47664;51.660;-0.100;2023-03-15T08:14:35;101055.02;;;3.36;58.30
61761;BME280;47664;51.660;-0.100;2023-03-15T08:17:07;101057.58;;;4.22;57.97
61761;BME280;47664;51.660;-0.100;2023-03-15T08:19:39;101060.63;;;3.77;58.10
61761;BME280;47664;51.660;-0.100;2023-03-15T08:22:12;101064.42;;;4.34;57.97
61761;BME280;47664;51.660;-0.100;2023-03-15T08:24:45;101063.11;;;4.11;57.93
61761;BME280;47664;51.660;-0.100;2023-03-15T08:27:17;101057.50;;;4.07;57.58
61761;BME280;47664;51.660;-0.100;2023-03-15T08:29:49;101059.66;;;4.50;57.17
61761;BME280;47664;51.660;-0.100;2023-03-15T08:32:22;101062.75;;;4.39;56.94
61761;BME280;47664;51.660;-0.100;2023-03-15T08:34:54;101063.27;;;4.39;56.84
61761;BME280;47664;51.660;-0.100;2023-03-15T08:37:26;101072.22;;;3.71;56.98
61761;BME280;47664;51.660;-0.100;2023-03-15T08:39:58;101072.90;;;4.65;56.89
61761;BME280;47664;51.660;-0.100;2023-03-15T08:42:31;101078.88;;;3.61;56.78
61761;BME280;47664;51.660;-0.100;2023-03-15T08:45:03;101076.93;;;4.29;56.66
61761;BME280;47664;51.660;-0.100;2023-03-15T08:47:36;101070.17;;;4.47;56.83
61761;BME280;47664;51.660;-0.100;2023-03-15T08:50:10;101067.40;;;4.76;57.07
61761;BME280;47664;51.660;-0.100;2023-03-15T08:52:43;101064.37;;;4.28;56.56
61761;BME280;47664;51.660;-0.100;2023-03-15T08:55:16;101062.72;;;4.89;56.39
61761;BME280;47664;51.660;-0.100;2023-03-15T08:57:48;101067.14;;;5.03;56.55
61761;BME280;47664;51.660;-0.100;2023-03-15T09:00:21;101069.24;;;4.28;56.01
61761;BME280;47664;51.660;-0.100;2023-03-15T09:02:54;101069.58;;;4.69;56.37
61761;BME280;47664;51.660;-0.100;2023-03-15T09:05:27;101065.82;;;3.86;56.35
61761;BME280;47664;51.660;-0.100;2023-03-15T09:07:59;101058.99;;;4.45;57.36
61761;BME280;47664;51.660;-0.100;2023-03-15T09:10:31;101061.49;;;4.55;57.65
61761;BME280;47664;51.660;-0.100;2023-03-15T09:13:03;101065.52;;;5.02;56.41
61761;BME280;47664;51.660;-0.100;2023-03-15T09:15:35;101067.69;;;4.93;56.64
61761;BME280;47664;51.660;-0.100;2023-03-15T09:18:07;101065.64;;;5.14;56.03
61761;BME280;47664;51.660;-0.100;2023-03-15T09:20:39;101065.43;;;5.37;54.87
61761;BME280;47664;51.660;-0.100;2023-03-15T09:23:12;101066.50;;;5.51;53.66
61761;BME280;47664;51.660;-0.100;2023-03-15T09:25:44;101067.45;;;5.80;54.03
61761;BME280;47664;51.660;-0.100;2023-03-15T09:28:16;101069.38;;;5.40;53.69
61761;BME280;47664;51.660;-0.100;2023-03-15T09:30:48;101068.51;;;5.30;55.23
61761;BME280;47664;51.660;-0.100;2023-03-15T09:33:20;101073.87;;;5.38;54.77
61761;BME280;47664;51.660;-0.100;2023-03-15T09:35:54;101071.16;;;5.09;55.35
61761;BME280;47664;51.660;-0.100;2023-03-15T09:38:26;101071.64;;;5.23;55.15
61761;BME280;47664;51.660;-0.100;2023-03-15T09:40:57;101070.25;;;4.94;54.93
61761;BME280;47664;51.660;-0.100;2023-03-15T09:43:41;101069.56;;;5.03;54.46
61761;BME280;47664;51.660;-0.100;2023-03-15T09:46:24;101078.53;;;6.00;54.27
61761;BME280;47664;51.660;-0.100;2023-03-15T09:49:02;101078.73;;;5.57;54.35
61761;BME280;47664;51.660;-0.100;2023-03-15T09:51:37;101077.98;;;5.30;53.87
61761;BME280;47664;51.660;-0.100;2023-03-15T09:54:10;101079.06;;;5.47;54.74
61761;BME280;47664;51.660;-0.100;2023-03-15T09:56:48;101082.22;;;5.51;54.39
61761;BME280;47664;51.660;-0.100;2023-03-15T09:59:20;101087.79;;;5.35;54.07
61761;BME280;47664;51.660;-0.100;2023-03-15T10:01:53;101088.22;;;5.60;54.15
61761;BME280;47664;51.660;-0.100;2023-03-15T10:04:26;101084.83;;;4.97;54.70
61761;BME280;47664;51.660;-0.100;2023-03-15T10:07:00;101083.14;;;5.54;54.27
61761;BME280;47664;51.660;-0.100;2023-03-15T10:09:34;101081.73;;;5.77;53.38
61761;BME280;47664;51.660;-0.100;2023-03-15T10:12:09;101084.01;;;5.29;53.13
61761;BME280;47664;51.660;-0.100;2023-03-15T10:14:51;101092.46;;;5.77;52.90
61761;BME280;47664;51.660;-0.100;2023-03-15T10:17:31;101091.14;;;5.70;52.43
61761;BME280;47664;51.660;-0.100;2023-03-15T10:20:06;101088.23;;;6.05;51.68
61761;BME280;47664;51.660;-0.100;2023-03-15T10:22:43;101087.99;;;6.41;50.91
61761;BME280;47664;51.660;-0.100;2023-03-15T10:25:15;101086.00;;;6.23;50.74
61761;BME280;47664;51.660;-0.100;2023-03-15T10:27:47;101077.89;;;6.68;49.94
61761;BME280;47664;51.660;-0.100;2023-03-15T10:30:23;101079.75;;;5.88;50.83
61761;BME280;47664;51.660;-0.100;2023-03-15T10:32:57;101078.31;;;6.11;49.89
61761;BME280;47664;51.660;-0.100;2023-03-15T10:35:31;101072.07;;;5.41;50.38
61761;BME280;47664;51.660;-0.100;2023-03-15T10:38:11;101075.19;;;5.99;51.40
61761;BME280;47664;51.660;-0.100;2023-03-15T10:40:47;101076.94;;;5.81;49.67
61761;BME280;47664;51.660;-0.100;2023-03-15T10:43:20;101080.22;;;6.41;49.99
61761;BME280;47664;51.660;-0.100;2023-03-15T10:45:59;101085.36;;;6.06;49.99
61761;BME280;47664;51.660;-0.100;2023-03-15T10:48:33;101081.71;;;6.03;48.76
61761;BME280;47664;51.660;-0.100;2023-03-15T10:51:14;101089.21;;;6.18;48.83
61761;BME280;47664;51.660;-0.100;2023-03-15T10:53:52;101084.59;;;6.55;48.42
61761;BME280;47664;51.660;-0.100;2023-03-15T10:56:23;101080.66;;;6.18;47.55
61761;BME280;47664;51.660;-0.100;2023-03-15T10:58:57;101080.43;;;6.73;47.87
61761;BME280;47664;51.660;-0.100;2023-03-15T11:01:31;101085.25;;;6.22;47.33
61761;BME280;47664;51.660;-0.100;2023-03-15T11:04:12;101081.75;;;6.84;47.49
61761;BME280;47664;51.660;-0.100;2023-03-15T11:06:47;101084.04;;;7.10;46.40
61761;BME280;47664;51.660;-0.100;2023-03-15T11:09:22;101085.58;;;6.53;45.12
61761;BME280;47664;51.660;-0.100;2023-03-15T11:11:58;101083.32;;;6.34;45.65
61761;BME280;47664;51.660;-0.100;2023-03-15T11:14:32;101077.96;;;6.23;45.62
61761;BME280;47664;51.660;-0.100;2023-03-15T11:17:07;101071.68;;;6.89;43.44
61761;BME280;47664;51.660;-0.100;2023-03-15T11:19:39;101070.56;;;6.66;43.41
61761;BME280;47664;51.660;-0.100;2023-03-15T11:22:11;101068.20;;;6.83;43.85
61761;BME280;47664;51.660;-0.100;2023-03-15T11:24:44;101069.32;;;6.46;43.07
61761;BME280;47664;51.660;-0.100;2023-03-15T11:27:13;101068.17;;;6.84;44.22
61761;BME280;47664;51.660;-0.100;2023-03-15T11:29:48;101059.17;;;6.50;43.24
61761;BME280;47664;51.660;-0.100;2023-03-15T11:32:23;101056.79;;;6.91;42.80
61761;BME280;47664;51.660;-0.100;2023-03-15T11:34:56;101054.79;;;7.91;41.74
61761;BME280;47664;51.660;-0.100;2023-03-15T11:37:34;101054.33;;;7.39;41.45
61761;BME280;47664;51.660;-0.100;2023-03-15T11:40:10;101056.12;;;7.09;41.31
61761;BME280;47664;51.660;-0.100;2023-03-15T11:42:45;101058.64;;;7.03;41.92
61761;BME280;47664;51.660;-0.100;2023-03-15T11:45:19;101055.51;;;6.99;41.46
61761;BME280;47664;51.660;-0.100;2023-03-15T11:47:58;101051.78;;;6.73;42.94
61761;BME280;47664;51.660;-0.100;2023-03-15T11:50:32;101053.87;;;7.00;43.21
61761;BME280;47664;51.660;-0.100;2023-03-15T11:53:06;101056.04;;;7.46;42.67
61761;BME280;47664;51.660;-0.100;2023-03-15T11:55:46;101044.92;;;7.42;40.33
61761;BME280;47664;51.660;-0.100;2023-03-15T11:58:32;101045.44;;;7.51;40.40
61761;BME280;47664;51.660;-0.100;2023-03-15T12:01:08;101040.39;;;6.60;42.46
61761;BME280;47664;51.660;-0.100;2023-03-15T12:03:43;101042.54;;;6.86;43.88
61761;BME280;47664;51.660;-0.100;2023-03-15T12:06:36;101035.87;;;7.77;41.85
61761;BME280;47664;51.660;-0.100;2023-03-15T12:09:47;101042.18;;;7.46;42.81
61761;BME280;47664;51.660;-0.100;2023-03-15T12:12:56;101044.05;;;7.44;41.95
61761;BME280;47664;51.660;-0.100;2023-03-15T12:15:44;101041.80;;;6.58;43.01
61761;BME280;47664;51.660;-0.100;2023-03-15T12:18:30;101039.90;;;7.37;42.03
61761;BME280;47664;51.660;-0.100;2023-03-15T12:21:12;101036.10;;;7.11;42.23
61761;BME280;47664;51.660;-0.100;2023-03-15T12:23:44;101024.71;;;7.03;41.79
61761;BME280;47664;51.660;-0.100;2023-03-15T12:26:22;101015.52;;;6.61;43.27
61761;BME280;47664;51.660;-0.100;2023-03-15T12:29:05;101013.40;;;7.24;42.20
61761;BME280;47664;51.660;-0.100;2023-03-15T12:31:53;101013.78;;;6.98;41.03
61761;BME280;47664;51.660;-0.100;2023-03-15T12:34:29;101006.18;;;7.61;38.35
61761;BME280;47664;51.660;-0.100;2023-03-15T12:37:01;101002.92;;;7.73;39.50
61761;BME280;47664;51.660;-0.100;2023-03-15T12:39:38;101000.26;;;7.17;40.57
61761;BME280;47664;51.660;-0.100;2023-03-15T12:42:14;100999.53;;;7.37;39.95
61761;BME280;47664;51.660;-0.100;2023-03-15T12:45:57;100995.77;;;8.00;39.39
61761;BME280;47664;51.660;-0.100;2023-03-15T12:48:30;100989.53;;;7.78;38.84
61761;BME280;47664;51.660;-0.100;2023-03-15T12:51:03;100985.92;;;7.74;39.13
61761;BME280;47664;51.660;-0.100;2023-03-15T12:53:41;100988.17;;;7.84;38.10
61761;BME280;47664;51.660;-0.100;2023-03-15T12:56:32;100983.95;;;8.12;37.37
61761;BME280;47664;51.660;-0.100;2023-03-15T12:59:11;100986.99;;;7.33;38.91
61761;BME280;47664;51.660;-0.100;2023-03-15T13:01:47;100988.38;;;7.10;39.21
61761;BME280;47664;51.660;-0.100;2023-03-15T13:04:20;100985.93;;;7.26;40.18
61761;BME280;47664;51.660;-0.100;2023-03-15T13:06:59;100983.67;;;7.35;39.86
61761;BME280;47664;51.660;-0.100;2023-03-15T13:09:43;100982.10;;;7.22;39.69
61761;BME280;47664;51.660;-0.100;2023-03-15T13:12:19;100986.09;;;7.03;40.50
61761;BME280;47664;51.660;-0.100;2023-03-15T13:14:53;100979.28;;;6.95;41.01
61761;BME280;47664;51.660;-0.100;2023-03-15T13:17:33;100976.16;;;5.98;41.53
61761;BME280;47664;51.660;-0.100;2023-03-15T13:20:17;100977.17;;;6.47;42.57
61761;BME280;47664;51.660;-0.100;2023-03-15T13:22:54;100982.12;;;7.43;41.59
61761;BME280;47664;51.660;-0.100;2023-03-15T13:25:31;100978.53;;;6.80;41.00